Rose Creek, Minnesota
Current Conditions -  °F | °C
As of 10:36 AM on Wednesday 22 Oct 2014 (Local Time) from KAUM Reporting Station
Overcast Overcast  
Wind Chill: 40°   Ceiling: 6000
Heat Index: 46°   Visibility: 10mi
Dew Point: 39°   Wind: 15mph
Humidity: 76%   Direction: 160°SSE
Pressure: 30.22"   Gusts: 23mph
Location:  43.6°N, 92.83°W
Report Text: KAUM 221536Z AUTO 16013G20KT 10SM OVC060 08/04 A3022 RMK AO2
Loading
Personal Weather Stations






























Interactive Weather Map
Tropical Storm Tracking
New forecast layout! Learn more

10-Day Weather Forecast

Advertisements
Track Severe Weather on mobile